Astreana — 3ENP2 — position and weather

sailwx.info

Track history (hours):
 
Tides and Currents Weather Stations Pressure Air Temp Water Temp Dewpoint Dewpoint Depression Visibility Wind Speed Wind Dir Waves Ship Positions

Astreana

Last reported at 2018-Jan-12 03:19 UTC. Time now 2018-Jan-20 03:06 UTC.
Position N 33°13' E 132°04'.

Length 97 m; draft 4.8 m.

Type: Tanker. MMSI: 374548000.

Date/timePositionNaut miles runAvg speedWind from/ knotsBaromVisibWave heightAir tempDewpointWater temp
2018-Jan-12 03:19N 33°13' E 132°04'514.9
2018-Jan-12 02:59N 33°17' E 132°01'714.8
2018-Jan-12 02:30N 33°23' E 131°56'714.6
2018-Jan-12 02:00N 33°30' E 131°52'714.7
2018-Jan-12 01:30N 33°36' E 131°48'814.7
2018-Jan-12 00:59N 33°43' E 131°44'713.5
2018-Jan-12 00:30N 33°46' E 131°37'714.5
2018-Jan-12 00:00N 33°48' E 131°29'714.2
2018-Jan-11 23:31N 33°49' E 131°20'714.0
2018-Jan-11 23:01N 33°51' E 131°12'714.1
2018-Jan-11 22:30N 33°55' E 131°05'612.0
2018-Jan-11 22:00N 33°58' E 130°59'511.0
2018-Jan-11 21:31N 33°54' E 130°54'611.6
2018-Jan-11 21:00N 33°60' E 130°52'713.4
2018-Jan-11 20:31N 34°03' E 130°45'713.8
2018-Jan-11 20:00N 34°02' E 130°37'713.8
2018-Jan-11 19:30N 34°01' E 130°28'713.8
2018-Jan-11 19:00N 34°01' E 130°20'713.6
2018-Jan-11 18:31N 34°00' E 130°12'713.7
2018-Jan-11 18:00N 34°00' E 130°04'  
2018-Jan-07 07:00N 34°01' E 130°07'611.8
2018-Jan-07 06:30N 34°01' E 130°14'611.8
2018-Jan-07 06:00N 34°02' E 130°21'612.0
2018-Jan-07 05:30N 34°03' E 130°28'612.2
2018-Jan-07 05:00N 34°03' E 130°36'612.3
2018-Jan-07 04:30N 34°03' E 130°43'612.3
2018-Jan-07 04:00N 34°02' E 130°50'510.5
2018-Jan-07 03:30N 33°57' E 130°52'5 9.3
2018-Jan-07 03:01N 33°58' E 130°58'612.6
2018-Jan-07 02:30N 33°56' E 131°05'713.9
2018-Jan-07 02:00N 33°53' E 131°12'713.9
2018-Jan-07 01:30N 33°50' E 131°20'1413.8
2018-Jan-07 00:31N 33°48' E 131°36'713.5
2018-Jan-07 00:00N 33°45' E 131°44'714.0
2018-Jan-06 23:30N 33°39' E 131°48'713.8
2018-Jan-06 23:00N 33°33' E 131°52'713.5
2018-Jan-06 22:29N 33°27' E 131°56'713.6
2018-Jan-06 21:59N 33°20' E 131°59'612.5
2018-Jan-06 21:29N 33°15' E 132°03'29611.4
2018-Jan-05 19:30N 34°28' E 137°48'812.9
2018-Jan-05 18:55N 34°29' E 137°57'812.8
2018-Jan-05 18:18N 34°29' E 138°07'412.7
2018-Jan-05 17:58N 34°29' E 138°12'813.1
2018-Jan-05 17:22N 34°29' E 138°22'513.6
2018-Jan-05 17:00N 34°30' E 138°28'814.0
2018-Jan-05 16:27N 34°31' E 138°37'614.0
2018-Jan-05 16:00N 34°31' E 138°44'713.5
2018-Jan-05 15:30N 34°32' E 138°52'613.0
2018-Jan-05 15:00N 34°32' E 139°00'611.6
2018-Jan-05 14:30N 34°37' E 139°05'712.8
2018-Jan-05 13:58N 34°43' E 139°09'714.1
2018-Jan-05 13:29N 34°49' E 139°13'714.0
2018-Jan-05 13:00N 34°54' E 139°18'713.4
2018-Jan-05 12:30N 34°58' E 139°25'713.3
2018-Jan-05 12:00N 35°01' E 139°32'713.4
2018-Jan-05 11:30N 35°05' E 139°39'713.4
2018-Jan-05 11:01N 35°09' E 139°45'713.0
2018-Jan-05 10:30N 35°16' E 139°46'613.0
2018-Jan-05 10:00N 35°21' E 139°42'612.4
2018-Jan-05 09:31N 35°27' E 139°46'713.1
2018-Jan-05 09:00N 35°30' E 139°53'611.7
2018-Jan-05 08:30N 35°29' E 140°00'1 0.1
2018-Jan-05 00:34N 35°29' E 140°01'0 1.8
2018-Jan-05 00:30N 35°29' E 140°01'2 3.6
2018-Jan-05 00:00N 35°30' E 139°59'0 0.1
2018-Jan-04 23:27N 35°30' E 139°59'0 0.0
2018-Jan-04 22:57N 35°30' E 139°59'1 2.4
2018-Jan-04 22:31N 35°31' E 139°60'4 8.4
2018-Jan-04 22:00N 35°33' E 140°04'1 1.4
2018-Jan-04 21:30N 35°33' E 140°05'0 0.0
2018-Jan-04 21:00N 35°33' E 140°05'0 0.0
2018-Jan-04 20:30N 35°33' E 140°05'0 0.0
2018-Jan-04 19:48N 35°33' E 140°05'0 0.0
2018-Jan-04 19:24N 35°33' E 140°05'0 0.0
2018-Jan-04 19:00N 35°33' E 140°05'0 0.0
2018-Jan-04 18:30N 35°33' E 140°05'0 0.0
2018-Jan-04 18:00N 35°33' E 140°05'0 0.0
2018-Jan-04 17:30N 35°33' E 140°05'0 0.0
2018-Jan-04 17:00N 35°33' E 140°05'0 0.0
2018-Jan-04 16:24N 35°33' E 140°05'0 0.0
2018-Jan-04 16:00N 35°33' E 140°05'0 0.0
2018-Jan-04 15:30N 35°33' E 140°05'0 0.0
2018-Jan-04 15:00N 35°33' E 140°05'0 0.0
2018-Jan-04 14:30N 35°33' E 140°05'0 0.0
2018-Jan-04 14:00N 35°33' E 140°05'0 0.0
2018-Jan-04 13:30N 35°33' E 140°05'0 0.0
2018-Jan-04 13:00N 35°33' E 140°05'0 0.0
2018-Jan-04 12:30N 35°33' E 140°05'0 0.0
2018-Jan-04 12:00N 35°33' E 140°05'0 0.0
2018-Jan-04 11:30N 35°33' E 140°05'0 0.0
2018-Jan-04 11:00N 35°33' E 140°05'0 0.0
2018-Jan-04 10:30N 35°33' E 140°05'0 0.0
2018-Jan-04 10:00N 35°33' E 140°05'0 0.0
2018-Jan-04 09:30N 35°33' E 140°05'0 0.0
2018-Jan-04 09:00N 35°33' E 140°05'0 0.0
2018-Jan-04 08:30N 35°33' E 140°05'0 0.0
2018-Jan-04 08:00N 35°33' E 140°05'0 0.0
2018-Jan-04 07:24N 35°33' E 140°05'0 0.0
2018-Jan-04 07:00N 35°33' E 140°05'0 0.0
2018-Jan-04 06:30N 35°33' E 140°05'0 0.0
2018-Jan-04 06:00N 35°33' E 140°05'0 0.1
2018-Jan-04 05:30N 35°33' E 140°05'3 5.0
2018-Jan-04 05:00N 35°33' E 140°02'4 8.9
2018-Jan-04 04:30N 35°31' E 139°57'5 9.1
2018-Jan-04 04:00N 35°29' E 139°52'510.1
2018-Jan-04 03:30N 35°25' E 139°48'611.9
2018-Jan-04 03:00N 35°20' E 139°44'611.2
2018-Jan-04 02:30N 35°15' E 139°47'612.3
2018-Jan-04 02:00N 35°09' E 139°47'612.6
2018-Jan-04 01:30N 35°03' E 139°43'612.9
2018-Jan-04 01:00N 34°59' E 139°36'611.6
2018-Jan-04 00:30N 34°56' E 139°30'712.4
2018-Jan-03 23:58N 34°52' E 139°24'612.2
2018-Jan-03 23:29N 34°48' E 139°19'612.9
2018-Jan-03 22:59N 34°44' E 139°13'612.6
2018-Jan-03 22:28N 34°39' E 139°08'612.7
2018-Jan-03 22:00N 34°34' E 139°03'613.0
2018-Jan-03 21:30N 34°31' E 138°56'713.6
2018-Jan-03 21:00N 34°31' E 138°48'814.0
2018-Jan-03 20:26N 34°30' E 138°38'714.1
2018-Jan-03 19:58N 34°29' E 138°30'714.1
2018-Jan-03 19:27N 34°29' E 138°21'714.6
2018-Jan-03 19:00N 34°29' E 138°14'814.7
2018-Jan-03 18:26N 34°29' E 138°03'714.2
2018-Jan-03 17:57N 34°28' E 137°55'613.7
2018-Jan-03 17:29N 34°27' E 137°48'29512.3
2018-Jan-02 17:34N 33°13' E 132°03'216.9
2018-Jan-02 17:26N 33°15' E 132°02'717.3
2018-Jan-02 17:00N 33°21' E 131°57'816.5
2018-Jan-02 16:30N 33°28' E 131°53'816.7
2018-Jan-02 16:00N 33°36' E 131°48'816.4
2018-Jan-02 15:30N 33°43' E 131°44'815.1
2018-Jan-02 15:00N 33°47' E 131°36'815.6
2018-Jan-02 14:30N 33°49' E 131°27'815.5
2018-Jan-02 14:00N 33°50' E 131°18'714.9
2018-Jan-02 13:30N 33°53' E 131°09'714.6
2018-Jan-02 13:00N 33°57' E 131°02'510.3
2018-Jan-02 12:30N 33°56' E 130°56'4 7.1
2018-Jan-02 12:00N 33°56' E 130°52'611.6
2018-Jan-02 11:31N 34°02' E 130°50'714.4
2018-Jan-02 11:01N 34°03' E 130°41'714.9
2018-Jan-02 10:30N 34°02' E 130°32'714.6
2018-Jan-02 10:00N 34°02' E 130°23'714.7
2018-Jan-02 09:31N 34°01' E 130°15'1514.7
2018-Jan-02 08:30N 34°01' E 129°57'  
Track history (hours):
 
Tides and Currents Weather Stations Pressure Air Temp Water Temp Dewpoint Dewpoint Depression Visibility Wind Speed Wind Dir Waves Ship Positions

Astreana

Last reported at 2018-Jan-12 03:19 UTC. Time now 2018-Jan-20 03:06 UTC.
Position N 33°13' E 132°04'.

Length 97 m; draft 4.8 m.

Type: Tanker. MMSI: 374548000.

Date/timePositionNaut miles runAvg speedWind from/ knotsBaromVisibWave heightAir tempDewpointWater temp
2018-Jan-12 03:19N 33°13' E 132°04'514.9
2018-Jan-12 02:59N 33°17' E 132°01'714.8
2018-Jan-12 02:30N 33°23' E 131°56'714.6
2018-Jan-12 02:00N 33°30' E 131°52'714.7
2018-Jan-12 01:30N 33°36' E 131°48'814.7
2018-Jan-12 00:59N 33°43' E 131°44'713.5
2018-Jan-12 00:30N 33°46' E 131°37'714.5
2018-Jan-12 00:00N 33°48' E 131°29'714.2
2018-Jan-11 23:31N 33°49' E 131°20'714.0
2018-Jan-11 23:01N 33°51' E 131°12'714.1
2018-Jan-11 22:30N 33°55' E 131°05'612.0
2018-Jan-11 22:00N 33°58' E 130°59'511.0
2018-Jan-11 21:31N 33°54' E 130°54'611.6
2018-Jan-11 21:00N 33°60' E 130°52'713.4
2018-Jan-11 20:31N 34°03' E 130°45'713.8
2018-Jan-11 20:00N 34°02' E 130°37'713.8
2018-Jan-11 19:30N 34°01' E 130°28'713.8
2018-Jan-11 19:00N 34°01' E 130°20'713.6
2018-Jan-11 18:31N 34°00' E 130°12'713.7
2018-Jan-11 18:00N 34°00' E 130°04'  
2018-Jan-07 07:00N 34°01' E 130°07'611.8
2018-Jan-07 06:30N 34°01' E 130°14'611.8
2018-Jan-07 06:00N 34°02' E 130°21'612.0
2018-Jan-07 05:30N 34°03' E 130°28'612.2
2018-Jan-07 05:00N 34°03' E 130°36'612.3
2018-Jan-07 04:30N 34°03' E 130°43'612.3
2018-Jan-07 04:00N 34°02' E 130°50'510.5
2018-Jan-07 03:30N 33°57' E 130°52'5 9.3
2018-Jan-07 03:01N 33°58' E 130°58'612.6
2018-Jan-07 02:30N 33°56' E 131°05'713.9
2018-Jan-07 02:00N 33°53' E 131°12'713.9
2018-Jan-07 01:30N 33°50' E 131°20'1413.8
2018-Jan-07 00:31N 33°48' E 131°36'713.5
2018-Jan-07 00:00N 33°45' E 131°44'714.0
2018-Jan-06 23:30N 33°39' E 131°48'713.8
2018-Jan-06 23:00N 33°33' E 131°52'713.5
2018-Jan-06 22:29N 33°27' E 131°56'713.6
2018-Jan-06 21:59N 33°20' E 131°59'612.5
2018-Jan-06 21:29N 33°15' E 132°03'29611.4
2018-Jan-05 19:30N 34°28' E 137°48'812.9
2018-Jan-05 18:55N 34°29' E 137°57'812.8
2018-Jan-05 18:18N 34°29' E 138°07'412.7
2018-Jan-05 17:58N 34°29' E 138°12'813.1
2018-Jan-05 17:22N 34°29' E 138°22'513.6
2018-Jan-05 17:00N 34°30' E 138°28'814.0
2018-Jan-05 16:27N 34°31' E 138°37'614.0
2018-Jan-05 16:00N 34°31' E 138°44'713.5
2018-Jan-05 15:30N 34°32' E 138°52'613.0
2018-Jan-05 15:00N 34°32' E 139°00'611.6
2018-Jan-05 14:30N 34°37' E 139°05'712.8
2018-Jan-05 13:58N 34°43' E 139°09'714.1
2018-Jan-05 13:29N 34°49' E 139°13'714.0
2018-Jan-05 13:00N 34°54' E 139°18'713.4
2018-Jan-05 12:30N 34°58' E 139°25'713.3
2018-Jan-05 12:00N 35°01' E 139°32'713.4
2018-Jan-05 11:30N 35°05' E 139°39'713.4
2018-Jan-05 11:01N 35°09' E 139°45'713.0
2018-Jan-05 10:30N 35°16' E 139°46'613.0
2018-Jan-05 10:00N 35°21' E 139°42'612.4
2018-Jan-05 09:31N 35°27' E 139°46'713.1
2018-Jan-05 09:00N 35°30' E 139°53'611.7
2018-Jan-05 08:30N 35°29' E 140°00'1 0.1
2018-Jan-05 00:34N 35°29' E 140°01'0 1.8
2018-Jan-05 00:30N 35°29' E 140°01'2 3.6
2018-Jan-05 00:00N 35°30' E 139°59'0 0.1
2018-Jan-04 23:27N 35°30' E 139°59'0 0.0
2018-Jan-04 22:57N 35°30' E 139°59'1 2.4
2018-Jan-04 22:31N 35°31' E 139°60'4 8.4
2018-Jan-04 22:00N 35°33' E 140°04'1 1.4
2018-Jan-04 21:30N 35°33' E 140°05'0 0.0
2018-Jan-04 21:00N 35°33' E 140°05'0 0.0
2018-Jan-04 20:30N 35°33' E 140°05'0 0.0
2018-Jan-04 19:48N 35°33' E 140°05'0 0.0
2018-Jan-04 19:24N 35°33' E 140°05'0 0.0
2018-Jan-04 19:00N 35°33' E 140°05'0 0.0
2018-Jan-04 18:30N 35°33' E 140°05'0 0.0
2018-Jan-04 18:00N 35°33' E 140°05'0 0.0
2018-Jan-04 17:30N 35°33' E 140°05'0 0.0
2018-Jan-04 17:00N 35°33' E 140°05'0 0.0
2018-Jan-04 16:24N 35°33' E 140°05'0 0.0
2018-Jan-04 16:00N 35°33' E 140°05'0 0.0
2018-Jan-04 15:30N 35°33' E 140°05'0 0.0
2018-Jan-04 15:00N 35°33' E 140°05'0 0.0
2018-Jan-04 14:30N 35°33' E 140°05'0 0.0
2018-Jan-04 14:00N 35°33' E 140°05'0 0.0
2018-Jan-04 13:30N 35°33' E 140°05'0 0.0
2018-Jan-04 13:00N 35°33' E 140°05'0 0.0
2018-Jan-04 12:30N 35°33' E 140°05'0 0.0
2018-Jan-04 12:00N 35°33' E 140°05'0 0.0
2018-Jan-04 11:30N 35°33' E 140°05'0 0.0
2018-Jan-04 11:00N 35°33' E 140°05'0 0.0
2018-Jan-04 10:30N 35°33' E 140°05'0 0.0
2018-Jan-04 10:00N 35°33' E 140°05'0 0.0
2018-Jan-04 09:30N 35°33' E 140°05'0 0.0
2018-Jan-04 09:00N 35°33' E 140°05'0 0.0
2018-Jan-04 08:30N 35°33' E 140°05'0 0.0
2018-Jan-04 08:00N 35°33' E 140°05'0 0.0
2018-Jan-04 07:24N 35°33' E 140°05'0 0.0
2018-Jan-04 07:00N 35°33' E 140°05'0 0.0
2018-Jan-04 06:30N 35°33' E 140°05'0 0.0
2018-Jan-04 06:00N 35°33' E 140°05'0 0.1
2018-Jan-04 05:30N 35°33' E 140°05'3 5.0
2018-Jan-04 05:00N 35°33' E 140°02'4 8.9
2018-Jan-04 04:30N 35°31' E 139°57'5 9.1
2018-Jan-04 04:00N 35°29' E 139°52'510.1
2018-Jan-04 03:30N 35°25' E 139°48'611.9
2018-Jan-04 03:00N 35°20' E 139°44'611.2
2018-Jan-04 02:30N 35°15' E 139°47'612.3
2018-Jan-04 02:00N 35°09' E 139°47'612.6
2018-Jan-04 01:30N 35°03' E 139°43'612.9
2018-Jan-04 01:00N 34°59' E 139°36'611.6
2018-Jan-04 00:30N 34°56' E 139°30'712.4
2018-Jan-03 23:58N 34°52' E 139°24'612.2
2018-Jan-03 23:29N 34°48' E 139°19'612.9
2018-Jan-03 22:59N 34°44' E 139°13'612.6
2018-Jan-03 22:28N 34°39' E 139°08'612.7
2018-Jan-03 22:00N 34°34' E 139°03'613.0
2018-Jan-03 21:30N 34°31' E 138°56'713.6
2018-Jan-03 21:00N 34°31' E 138°48'814.0
2018-Jan-03 20:26N 34°30' E 138°38'714.1
2018-Jan-03 19:58N 34°29' E 138°30'714.1
2018-Jan-03 19:27N 34°29' E 138°21'714.6
2018-Jan-03 19:00N 34°29' E 138°14'814.7
2018-Jan-03 18:26N 34°29' E 138°03'714.2
2018-Jan-03 17:57N 34°28' E 137°55'613.7
2018-Jan-03 17:29N 34°27' E 137°48'29512.3
2018-Jan-02 17:34N 33°13' E 132°03'216.9
2018-Jan-02 17:26N 33°15' E 132°02'717.3
2018-Jan-02 17:00N 33°21' E 131°57'816.5
2018-Jan-02 16:30N 33°28' E 131°53'816.7
2018-Jan-02 16:00N 33°36' E 131°48'816.4
2018-Jan-02 15:30N 33°43' E 131°44'815.1
2018-Jan-02 15:00N 33°47' E 131°36'815.6
2018-Jan-02 14:30N 33°49' E 131°27'815.5
2018-Jan-02 14:00N 33°50' E 131°18'714.9
2018-Jan-02 13:30N 33°53' E 131°09'714.6
2018-Jan-02 13:00N 33°57' E 131°02'510.3
2018-Jan-02 12:30N 33°56' E 130°56'4 7.1
2018-Jan-02 12:00N 33°56' E 130°52'611.6
2018-Jan-02 11:31N 34°02' E 130°50'714.4
2018-Jan-02 11:01N 34°03' E 130°41'714.9
2018-Jan-02 10:30N 34°02' E 130°32'714.6
2018-Jan-02 10:00N 34°02' E 130°23'714.7
2018-Jan-02 09:31N 34°01' E 130°15'1514.7
2018-Jan-02 08:30N 34°01' E 129°57'  

Dump ship's entire track history